Terminal Aerodrome Forecast
Issued by NWS

Home | Current Version | Previous Version | Text Only | Print | Product List | Glossary On
Versions: 1 2 3 4 5 6 7 8 9 10 11 12 13 14 15 16 17 18 19 20 21
364
FTUS42 KGSP 231120
TAFAND
TAF
KAND 231120Z 2312/2412 VRB03KT 3SM SHRA BR OVC008
     FM231500 20005KT 5SM SHRA OVC010
      TEMPO 2315/2319 3SM TSRA BR OVC008CB
     FM232000 22007KT P6SM -SHRA OVC025
     FM240000 19004KT 5SM BR VCSH OVC035
     FM240600 11003KT 6SM BR VCSH OVC005=

USA.gov is the U.S. government's official web portal to all federal, state and local government web resources and services.